Time;durP1;ratioP1;P1;durP2;ratioP2;P2;SDS_P1;SDS_P2;PMS_P1;PMS_P2;Temp;Humidity;BMP_temperature;BMP_pressure;BME280_temperature;BME280_humidity;BME280_pressure;Samples;Min_cycle;Max_cycle;Signal;HPM_P1;HPM_P2
2021/09/24 00:01:09;;;;;;;;;;;;;;;15.26;63.72;99401.95;116844;1190;21903;-76
2021/09/24 00:03:38;;;;;;;;;;;;;;;15.25;63.87;99398.15;117067;1188;21873;-75
2021/09/24 00:06:08;;;;;;;;;;;;;;;15.22;63.81;99411.95;117069;1189;21868;-77
2021/09/24 00:08:38;;;;;;;;;;;;;;;15.19;63.86;99413.13;116933;1190;21861;-76
2021/09/24 00:11:07;;;;;;;;;;;;;;;15.17;63.99;99410.58;117086;1185;21872;-75
2021/09/24 00:13:36;;;;;;;;;;;;;;;15.15;63.78;99416.32;117088;1185;22348;-75
2021/09/24 00:16:05;;;;;;;;;;;;;;;15.12;63.75;99417.76;117048;1188;21869;-75
2021/09/24 00:18:35;;;;;;;;;;;;;;;15.09;63.66;99418.59;117061;1185;21860;-75
2021/09/24 00:21:04;;;;;;;;;;;;;;;15.07;63.71;99425.32;117051;1189;22894;-76
2021/09/24 00:23:33;;;;;;;;;;;;;;;15.06;63.62;99428.81;116959;1189;21864;-76
2021/09/24 00:26:03;;;;;;;;;;;;;;;15.04;63.40;99429.82;116831;1187;22214;-76
2021/09/24 00:28:33;;;;;;;;;;;;;;;15.00;63.37;99429.77;116802;1191;22263;-76
2021/09/24 00:31:02;;;;;;;;;;;;;;;14.98;63.24;99430.98;116804;1191;21968;-76
2021/09/24 00:33:32;;;;;;;;;;;;;;;14.96;63.15;99439.75;116913;1190;21865;-75
2021/09/24 00:36:01;;;;;;;;;;;;;;;14.95;63.08;99448.48;116744;1190;23649;-76
2021/09/24 00:38:31;;;;;;;;;;;;;;;14.92;63.00;99444.65;116763;1192;21907;-75
2021/09/24 00:41:01;;;;;;;;;;;;;;;14.93;63.04;99447.05;116601;1193;22202;-75
2021/09/24 00:43:30;;;;;;;;;;;;;;;14.96;62.84;99448.33;116639;1192;21889;-74
2021/09/24 00:46:00;;;;;;;;;;;;;;;14.92;62.27;99455.45;116741;1193;21882;-75
2021/09/24 00:48:30;;;;;;;;;;;;;;;14.84;61.85;99451.27;116794;1192;24053;-75
2021/09/24 00:51:00;;;;;;;;;;;;;;;14.78;61.31;99441.98;116765;1192;21869;-75
2021/09/24 00:53:30;;;;;;;;;;;;;;;14.73;60.95;99447.35;116788;1190;22906;-76
2021/09/24 00:55:59;;;;;;;;;;;;;;;14.67;60.59;99451.41;116855;1190;21893;-75
2021/09/24 00:58:28;;;;;;;;;;;;;;;14.60;59.99;99452.48;116963;1190;21881;-75
2021/09/24 01:00:57;;;;;;;;;;;;;;;14.55;59.71;99462.29;116948;1190;21868;-74
2021/09/24 01:03:27;;;;;;;;;;;;;;;14.49;59.65;99465.00;116959;1190;21893;-75
2021/09/24 01:05:56;;;;;;;;;;;;;;;14.44;59.63;99467.36;116977;1188;21921;-74
2021/09/24 01:08:25;;;;;;;;;;;;;;;14.41;59.72;99465.25;117154;1188;24113;-75
2021/09/24 01:10:55;;;;;;;;;;;;;;;14.36;59.89;99467.54;117180;1188;21908;-76
2021/09/24 01:13:24;;;;;;;;;;;;;;;14.29;60.09;99468.30;117179;1188;22915;-75
2021/09/24 01:15:53;;;;;;;;;;;;;;;14.22;60.15;99460.73;117193;1184;22906;-74
2021/09/24 01:18:25;;;;;;;;;;;;;;;14.16;60.02;99462.37;117106;1188;21879;-75
2021/09/24 01:20:56;;;;;;;;;;;;;;;14.10;59.94;99465.99;117151;1188;22927;-75
2021/09/24 01:23:25;;;;;;;;;;;;;;;14.05;59.75;99470.36;117159;1188;21849;-75
2021/09/24 01:25:55;;;;;;;;;;;;;;;14.01;59.54;99472.57;117150;1186;22893;-75
2021/09/24 01:28:24;;;;;;;;;;;;;;;13.94;59.32;99474.94;117164;1188;22327;-75
2021/09/24 01:30:53;;;;;;;;;;;;;;;13.88;59.08;99472.70;117188;1188;22634;-75
2021/09/24 01:33:22;;;;;;;;;;;;;;;13.82;58.82;99477.31;117204;1188;21863;-75
2021/09/24 01:35:52;;;;;;;;;;;;;;;13.77;58.66;99477.83;117200;1188;22679;-76
2021/09/24 01:38:21;;;;;;;;;;;;;;;13.74;58.58;99487.30;117212;1188;22614;-75
2021/09/24 01:40:50;;;;;;;;;;;;;;;13.71;58.43;99486.26;117228;1188;23421;-75
2021/09/24 01:43:19;;;;;;;;;;;;;;;13.65;58.26;99493.17;117150;1188;21879;-75
2021/09/24 01:45:49;;;;;;;;;;;;;;;13.60;58.22;99496.24;117141;1184;24835;-75
2021/09/24 01:48:18;;;;;;;;;;;;;;;13.56;58.04;99494.42;117104;1188;21973;-75
2021/09/24 01:50:47;;;;;;;;;;;;;;;13.52;58.05;99496.17;116954;1190;21876;-76
2021/09/24 01:53:16;;;;;;;;;;;;;;;13.48;57.82;99496.88;116945;1190;22017;-76
2021/09/24 01:55:45;;;;;;;;;;;;;;;13.45;57.68;99495.71;116898;1190;21858;-76
2021/09/24 01:58:15;;;;;;;;;;;;;;;13.42;57.70;99494.93;116922;1190;21953;-75
2021/09/24 02:00:45;;;;;;;;;;;;;;;13.37;57.71;99497.44;117007;1187;21864;-76
2021/09/24 02:03:14;;;;;;;;;;;;;;;13.32;57.72;99498.19;117001;1189;21943;-76
2021/09/24 02:05:43;;;;;;;;;;;;;;;13.28;57.60;99497.33;116876;1190;21906;-75
2021/09/24 02:08:12;;;;;;;;;;;;;;;13.27;57.69;99499.70;116919;1189;23016;-76
2021/09/24 02:10:42;;;;;;;;;;;;;;;13.25;57.77;99503.48;117127;1188;21863;-76
2021/09/24 02:13:11;;;;;;;;;;;;;;;13.22;57.80;99505.54;117132;1188;22898;-76
2021/09/24 02:15:41;;;;;;;;;;;;;;;13.21;57.82;99505.60;117167;1188;21876;-76
2021/09/24 02:18:10;;;;;;;;;;;;;;;13.17;57.88;99501.71;117189;1188;22902;-76
2021/09/24 02:20:39;;;;;;;;;;;;;;;13.15;58.05;99506.98;117141;1188;21891;-75
2021/09/24 02:23:08;;;;;;;;;;;;;;;13.12;58.32;99513.92;117160;1188;23517;-76
2021/09/24 02:25:37;;;;;;;;;;;;;;;13.10;58.64;99517.06;117037;1188;21866;-76
2021/09/24 02:28:07;;;;;;;;;;;;;;;13.10;58.74;99524.96;117102;1188;21923;-76
2021/09/24 02:30:36;;;;;;;;;;;;;;;13.10;58.91;99528.27;117155;1188;24265;-76
2021/09/24 02:33:05;;;;;;;;;;;;;;;13.12;59.06;99533.90;117133;1188;23481;-76
2021/09/24 02:35:34;;;;;;;;;;;;;;;13.13;59.20;99527.17;117161;1188;23520;-76
2021/09/24 02:38:05;;;;;;;;;;;;;;;13.15;59.50;99536.31;117134;1188;22362;-76
2021/09/24 02:40:34;;;;;;;;;;;;;;;13.17;59.62;99541.55;117197;1188;24194;-75
2021/09/24 02:43:03;;;;;;;;;;;;;;;13.18;59.75;99543.16;117164;1188;23457;-77
2021/09/24 02:45:32;;;;;;;;;;;;;;;13.17;59.87;99545.57;117127;1188;22318;-77
2021/09/24 02:48:02;;;;;;;;;;;;;;;13.17;60.14;99549.13;117160;1188;21872;-77
2021/09/24 02:50:31;;;;;;;;;;;;;;;13.17;60.17;99547.86;117095;1188;22932;-76
2021/09/24 02:53:00;;;;;;;;;;;;;;;13.17;60.21;99548.48;117033;1188;21928;-77
2021/09/24 02:55:30;;;;;;;;;;;;;;;13.16;60.10;99551.41;117100;1188;23626;-76
2021/09/24 02:57:59;;;;;;;;;;;;;;;13.16;60.20;99549.30;117085;1188;21876;-75
2021/09/24 03:00:29;;;;;;;;;;;;;;;13.16;60.22;99547.12;117050;1188;21900;-75
2021/09/24 03:02:58;;;;;;;;;;;;;;;13.18;60.28;99549.04;117074;1189;22021;-75
2021/09/24 03:05:27;;;;;;;;;;;;;;;13.18;60.23;99550.84;117107;1187;23457;-75
2021/09/24 03:07:57;;;;;;;;;;;;;;;13.18;60.27;99552.95;116985;1190;22848;-76
2021/09/24 03:10:26;;;;;;;;;;;;;;;13.18;60.16;99555.23;117023;1189;22894;-76
2021/09/24 03:12:55;;;;;;;;;;;;;;;13.19;60.06;99553.00;117065;1189;21852;-75
2021/09/24 03:15:24;;;;;;;;;;;;;;;13.21;60.22;99553.77;117062;1189;23682;-76
2021/09/24 03:17:53;;;;;;;;;;;;;;;13.22;60.30;99555.70;117027;1189;21869;-75
2021/09/24 03:20:23;;;;;;;;;;;;;;;13.20;60.28;99552.89;117096;1189;21871;-76
2021/09/24 03:22:53;;;;;;;;;;;;;;;13.19;60.51;99558.59;117097;1189;21884;-76
2021/09/24 03:25:22;;;;;;;;;;;;;;;13.17;60.60;99560.63;117066;1189;23533;-77
2021/09/24 03:27:51;;;;;;;;;;;;;;;13.15;60.84;99560.01;117078;1189;21867;-76
2021/09/24 03:30:20;;;;;;;;;;;;;;;13.14;61.03;99567.28;117080;1189;21960;-76
2021/09/24 03:32:50;;;;;;;;;;;;;;;13.14;61.01;99568.88;117079;1189;22265;-75
2021/09/24 03:35:19;;;;;;;;;;;;;;;13.14;61.14;99569.03;116975;1190;23523;-76
2021/09/24 03:37:48;;;;;;;;;;;;;;;13.14;61.20;99571.27;117015;1189;21956;-76
2021/09/24 03:40:17;;;;;;;;;;;;;;;13.14;61.21;99569.92;117070;1189;23473;-76
2021/09/24 03:42:47;;;;;;;;;;;;;;;13.13;61.27;99570.52;117045;1189;21880;-76
2021/09/24 03:45:16;;;;;;;;;;;;;;;13.11;61.18;99570.83;117032;1187;22619;-76
2021/09/24 03:47:45;;;;;;;;;;;;;;;13.07;61.11;99565.55;116937;1189;22041;-76
2021/09/24 03:50:15;;;;;;;;;;;;;;;13.01;61.11;99562.77;117073;1188;23448;-76
2021/09/24 03:52:44;;;;;;;;;;;;;;;12.97;61.10;99569.91;117066;1189;21903;-77
2021/09/24 03:55:13;;;;;;;;;;;;;;;12.92;61.19;99575.98;117094;1189;21894;-77
2021/09/24 03:57:43;;;;;;;;;;;;;;;12.90;61.34;99580.34;117059;1189;22271;-77
2021/09/24 04:00:13;;;;;;;;;;;;;;;12.86;61.32;99592.48;117051;1189;21877;-76
2021/09/24 04:02:42;;;;;;;;;;;;;;;12.82;61.29;99599.91;117091;1189;22406;-77
2021/09/24 04:05:12;;;;;;;;;;;;;;;12.80;61.50;99603.86;117034;1189;23708;-77
2021/09/24 04:07:41;;;;;;;;;;;;;;;12.78;61.47;99605.57;116956;1189;22913;-77
2021/09/24 04:10:11;;;;;;;;;;;;;;;12.77;61.60;99608.98;117066;1189;21873;-76
2021/09/24 04:12:40;;;;;;;;;;;;;;;12.74;61.61;99613.50;117081;1189;23598;-76
2021/09/24 04:15:10;;;;;;;;;;;;;;;12.72;61.67;99615.34;117049;1189;22998;-76
2021/09/24 04:17:39;;;;;;;;;;;;;;;12.72;61.73;99614.88;117084;1189;21880;-76
2021/09/24 04:20:09;;;;;;;;;;;;;;;12.72;61.78;99617.69;117122;1189;21881;-75
2021/09/24 04:22:39;;;;;;;;;;;;;;;12.71;61.75;99623.80;117174;1189;22170;-75
2021/09/24 04:25:09;;;;;;;;;;;;;;;12.69;61.77;99623.27;116812;1191;21902;-76
2021/09/24 04:27:38;;;;;;;;;;;;;;;12.68;61.78;99617.77;116964;1190;21889;-76
2021/09/24 04:30:08;;;;;;;;;;;;;;;12.68;61.73;99621.71;116923;1190;21932;-75
2021/09/24 04:32:37;;;;;;;;;;;;;;;12.66;61.80;99625.10;116600;1193;23580;-74
2021/09/24 04:35:07;;;;;;;;;;;;;;;12.65;61.74;99627.16;116503;1193;23533;-75
2021/09/24 04:37:36;;;;;;;;;;;;;;;12.65;61.76;99627.05;116489;1193;23533;-75
2021/09/24 04:40:06;;;;;;;;;;;;;;;12.65;61.86;99627.09;116481;1193;21892;-74
2021/09/24 04:42:36;;;;;;;;;;;;;;;12.66;61.95;99628.52;116627;1192;21899;-75
2021/09/24 04:45:05;;;;;;;;;;;;;;;12.64;61.91;99626.77;116757;1192;21873;-74
2021/09/24 04:47:37;;;;;;;;;;;;;;;12.64;61.93;99632.80;116778;1192;22140;-75
2021/09/24 04:50:08;;;;;;;;;;;;;;;12.63;61.97;99631.70;116694;1192;22738;-74
2021/09/24 04:52:39;;;;;;;;;;;;;;;12.63;62.09;99639.52;116583;1192;22896;-74
2021/09/24 04:55:09;;;;;;;;;;;;;;;12.65;62.15;99646.25;116774;1192;21881;-75
2021/09/24 04:57:38;;;;;;;;;;;;;;;12.67;62.11;99647.61;116973;1189;21855;-75
2021/09/24 05:00:11;;;;;;;;;;;;;;;12.68;62.11;99654.86;117091;1189;22354;-75
2021/09/24 05:02:46;;;;;;;;;;;;;;;12.70;62.08;99664.09;117082;1188;23625;-75
2021/09/24 05:05:15;;;;;;;;;;;;;;;12.70;62.18;99666.46;117093;1184;22894;-74
2021/09/24 05:07:48;;;;;;;;;;;;;;;12.71;62.19;99666.17;117053;1187;21868;-75
2021/09/24 05:10:17;;;;;;;;;;;;;;;12.72;62.22;99669.23;117074;1188;23016;-75
2021/09/24 05:12:47;;;;;;;;;;;;;;;12.76;62.20;99672.67;117136;1188;22842;-75
2021/09/24 05:15:19;;;;;;;;;;;;;;;12.79;62.20;99672.11;117100;1188;22892;-75
2021/09/24 05:17:48;;;;;;;;;;;;;;;12.81;62.38;99682.19;117160;1188;21881;-75
2021/09/24 05:20:18;;;;;;;;;;;;;;;12.84;62.43;99688.08;117132;1188;21881;-75
2021/09/24 05:22:47;;;;;;;;;;;;;;;12.87;62.29;99691.05;117117;1188;21860;-76
2021/09/24 05:25:19;;;;;;;;;;;;;;;12.89;62.35;99686.63;117204;1187;21880;-76
2021/09/24 05:27:52;;;;;;;;;;;;;;;12.94;62.40;99689.90;117199;1187;21851;-76
2021/09/24 05:30:22;;;;;;;;;;;;;;;12.99;62.16;99690.33;117132;1188;24358;-75
2021/09/24 05:32:51;;;;;;;;;;;;;;;13.01;62.12;99694.09;116829;1191;21904;-75
2021/09/24 05:35:20;;;;;;;;;;;;;;;13.05;62.15;99700.50;116792;1191;22057;-76
2021/09/24 05:37:49;;;;;;;;;;;;;;;13.08;61.98;99707.19;116811;1191;21961;-75
2021/09/24 05:40:18;;;;;;;;;;;;;;;13.10;61.96;99710.59;116756;1191;21887;-76
2021/09/24 05:42:48;;;;;;;;;;;;;;;13.13;61.90;99701.78;116774;1191;23425;-75
2021/09/24 05:45:18;;;;;;;;;;;;;;;13.17;62.08;99702.13;116788;1191;22779;-76
2021/09/24 05:47:47;;;;;;;;;;;;;;;13.22;62.06;99706.61;116808;1187;21905;-75
2021/09/24 05:50:17;;;;;;;;;;;;;;;13.25;61.87;99708.23;116819;1190;21874;-75
2021/09/24 05:52:49;;;;;;;;;;;;;;;13.26;61.87;99713.03;117046;1189;24307;-76
2021/09/24 05:55:21;;;;;;;;;;;;;;;13.29;61.80;99721.08;117056;1189;21887;-76
2021/09/24 05:57:52;;;;;;;;;;;;;;;13.31;61.74;99729.86;117068;1189;22173;-76
2021/09/24 06:00:22;;;;;;;;;;;;;;;13.32;61.64;99735.00;117075;1189;21890;-75
2021/09/24 06:02:52;;;;;;;;;;;;;;;13.36;61.92;99732.02;116780;1191;23437;-75
2021/09/24 06:05:24;;;;;;;;;;;;;;;13.41;61.88;99735.27;116836;1191;23455;-74
2021/09/24 06:07:53;;;;;;;;;;;;;;;13.43;61.77;99740.48;116778;1190;21876;-74
2021/09/24 06:10:39;;;;;;;;;;;;;;;13.45;61.80;99742.33;116779;1191;22439;-73
2021/09/24 06:13:09;;;;;;;;;;;;;;;13.46;61.64;99741.14;116875;1190;21903;-73
2021/09/24 06:15:39;;;;;;;;;;;;;;;13.47;61.67;99748.70;116858;1190;22203;-73
2021/09/24 06:18:11;;;;;;;;;;;;;;;13.46;61.71;99744.81;116847;1190;21870;-73
2021/09/24 06:20:41;;;;;;;;;;;;;;;13.49;61.87;99743.45;116963;1188;21924;-73
2021/09/24 06:23:13;;;;;;;;;;;;;;;13.52;62.01;99747.61;117022;1189;22200;-73
2021/09/24 06:25:45;;;;;;;;;;;;;;;13.57;62.05;99750.80;117190;1184;22923;-73
2021/09/24 06:28:14;;;;;;;;;;;;;;;13.63;61.96;99745.82;117115;1188;23016;-75
2021/09/24 06:30:43;;;;;;;;;;;;;;;13.69;62.08;99752.98;117082;1188;21862;-73
2021/09/24 06:33:13;;;;;;;;;;;;;;;13.78;62.19;99758.21;117051;1188;21873;-74
2021/09/24 06:35:42;;;;;;;;;;;;;;;13.84;61.92;99757.92;117120;1187;23522;-74
2021/09/24 06:38:12;;;;;;;;;;;;;;;13.90;61.73;99760.52;117204;1187;24261;-75
2021/09/24 06:40:41;;;;;;;;;;;;;;;13.92;61.42;99769.34;117095;1188;21854;-73
2021/09/24 06:43:10;;;;;;;;;;;;;;;13.95;61.26;99765.13;117076;1188;22926;-73
2021/09/24 06:45:40;;;;;;;;;;;;;;;13.99;61.40;99767.41;117164;1187;23419;-73
2021/09/24 06:48:09;;;;;;;;;;;;;;;14.05;61.36;99771.90;117203;1184;21864;-73
2021/09/24 06:50:39;;;;;;;;;;;;;;;14.10;61.04;99775.05;116973;1190;23885;-75
2021/09/24 06:53:08;;;;;;;;;;;;;;;14.14;60.96;99775.35;117002;1190;23496;-73
2021/09/24 06:55:38;;;;;;;;;;;;;;;14.16;60.87;99776.52;116859;1190;21892;-74
2021/09/24 06:58:07;;;;;;;;;;;;;;;14.16;60.74;99777.58;116994;1189;23614;-74
2021/09/24 07:00:37;;;;;;;;;;;;;;;14.16;60.71;99777.79;116828;1190;22359;-74
2021/09/24 07:03:06;;;;;;;;;;;;;;;14.15;60.79;99780.45;116798;1189;22068;-74
2021/09/24 07:05:35;;;;;;;;;;;;;;;14.15;60.77;99780.69;116963;1190;21878;-74
2021/09/24 07:08:05;;;;;;;;;;;;;;;14.11;60.81;99772.33;116987;1188;21869;-74
2021/09/24 07:10:34;;;;;;;;;;;;;;;14.08;60.87;99774.77;117155;1188;21950;-74
2021/09/24 07:13:03;;;;;;;;;;;;;;;14.08;60.84;99776.48;117080;1188;21932;-77
2021/09/24 07:15:32;;;;;;;;;;;;;;;14.09;61.01;99777.96;117115;1188;23529;-76
2021/09/24 07:18:03;;;;;;;;;;;;;;;14.14;61.27;99784.58;117088;1188;21874;-78
2021/09/24 07:20:32;;;;;;;;;;;;;;;14.19;61.28;99788.54;117073;1188;21895;-77
2021/09/24 07:23:21;;;;;;;;;;;;;;;14.19;60.90;99788.70;117098;1188;21903;-75
2021/09/24 07:25:51;;;;;;;;;;;;;;;14.15;60.74;99796.11;117191;1184;22943;-75
2021/09/24 07:28:20;;;;;;;;;;;;;;;14.13;60.83;99802.84;117242;1187;21865;-75
2021/09/24 07:30:49;;;;;;;;;;;;;;;14.12;60.84;99806.31;117095;1188;23671;-76
2021/09/24 07:33:18;;;;;;;;;;;;;;;14.11;60.95;99811.59;117092;1188;22910;-75
2021/09/24 07:35:47;;;;;;;;;;;;;;;14.11;61.04;99813.91;117203;1187;21890;-81
2021/09/24 07:38:18;;;;;;;;;;;;;;;14.10;60.99;99820.30;117129;1188;22321;-76
2021/09/24 07:40:48;;;;;;;;;;;;;;;14.05;60.76;99828.21;117146;1188;22287;-76
2021/09/24 07:43:17;;;;;;;;;;;;;;;13.98;60.85;99825.23;117090;1189;23825;-76
2021/09/24 07:45:46;;;;;;;;;;;;;;;13.94;61.16;99833.16;117127;1188;21880;-77
2021/09/24 07:48:15;;;;;;;;;;;;;;;13.96;61.43;99830.51;117170;1188;21995;-76
2021/09/24 07:50:48;;;;;;;;;;;;;;;13.97;61.40;99834.67;117191;1188;23422;-76
2021/09/24 07:53:17;;;;;;;;;;;;;;;13.96;61.40;99831.73;117021;1189;22507;-75
2021/09/24 07:55:46;;;;;;;;;;;;;;;13.98;61.67;99835.80;117045;1189;21866;-76
2021/09/24 07:58:15;;;;;;;;;;;;;;;14.03;61.82;99841.09;117054;1189;22910;-76
2021/09/24 08:00:44;;;;;;;;;;;;;;;14.04;61.68;99842.31;117076;1189;23420;-76
2021/09/24 08:03:13;;;;;;;;;;;;;;;14.02;61.57;99852.80;117017;1189;23419;-75
2021/09/24 08:05:42;;;;;;;;;;;;;;;14.01;61.54;99849.86;117173;1187;22853;-76
2021/09/24 08:08:11;;;;;;;;;;;;;;;13.98;61.58;99857.42;117025;1189;22806;-76
2021/09/24 08:10:40;;;;;;;;;;;;;;;13.95;61.38;99858.77;117072;1189;23547;-77
2021/09/24 08:13:09;;;;;;;;;;;;;;;13.88;61.36;99859.29;117122;1188;21954;-76
2021/09/24 08:15:42;;;;;;;;;;;;;;;13.85;61.67;99858.25;117061;1189;21873;-77
2021/09/24 08:18:13;;;;;;;;;;;;;;;13.88;62.03;99861.56;117061;1189;22718;-76
2021/09/24 08:20:42;;;;;;;;;;;;;;;13.93;62.17;99861.88;116856;1190;21913;-77
2021/09/24 08:23:12;;;;;;;;;;;;;;;13.99;62.17;99860.89;116875;1189;21924;-76
2021/09/24 08:25:41;;;;;;;;;;;;;;;14.04;61.94;99863.14;116817;1190;22049;-77
2021/09/24 08:28:10;;;;;;;;;;;;;;;14.08;61.74;99858.27;117073;1189;21882;-77
2021/09/24 08:30:39;;;;;;;;;;;;;;;14.10;61.65;99857.81;116811;1187;21887;-77
2021/09/24 08:33:09;;;;;;;;;;;;;;;14.13;61.69;99859.20;116972;1189;22187;-76
2021/09/24 08:35:38;;;;;;;;;;;;;;;14.16;61.44;99864.02;116955;1190;23585;-77
2021/09/24 08:38:07;;;;;;;;;;;;;;;14.16;61.30;99868.44;116945;1190;21903;-75
2021/09/24 08:40:36;;;;;;;;;;;;;;;14.17;61.28;99872.70;117256;1188;21878;-76
2021/09/24 08:43:05;;;;;;;;;;;;;;;14.17;61.26;99873.06;117243;1187;21879;-76
2021/09/24 08:45:34;;;;;;;;;;;;;;;14.17;61.40;99876.58;117000;1189;22918;-75
2021/09/24 08:48:06;;;;;;;;;;;;;;;14.21;61.41;99883.33;117059;1189;21853;-76
2021/09/24 08:50:37;;;;;;;;;;;;;;;14.29;61.69;99893.75;116771;1192;21918;-76
2021/09/24 08:53:08;;;;;;;;;;;;;;;14.40;61.74;99898.85;116955;1190;21869;-76
2021/09/24 08:55:37;;;;;;;;;;;;;;;14.54;61.87;99901.64;116768;1192;21881;-75
2021/09/24 08:58:07;;;;;;;;;;;;;;;14.69;61.67;99907.82;116819;1187;22672;-76
2021/09/24 09:00:36;;;;;;;;;;;;;;;14.80;61.51;99915.18;116824;1190;22861;-75
2021/09/24 09:03:13;;;;;;;;;;;;;;;14.89;61.07;99922.12;116785;1187;23415;-76
2021/09/24 09:05:53;;;;;;;;;;;;;;;14.96;60.89;99919.69;116784;1191;22030;-76
2021/09/24 09:08:27;;;;;;;;;;;;;;;15.06;60.82;99924.59;116823;1189;22131;-76
2021/09/24 09:11:17;;;;;;;;;;;;;;;15.09;60.27;99927.77;117067;1188;23448;-76
2021/09/24 09:13:50;;;;;;;;;;;;;;;15.12;60.23;99930.31;117038;1188;21853;-75
2021/09/24 09:16:36;;;;;;;;;;;;;;;15.17;60.05;99931.52;117037;1189;21881;-76
2021/09/24 09:19:15;;;;;;;;;;;;;;;15.14;59.61;99938.04;117047;1186;23447;-75
2021/09/24 09:21:47;;;;;;;;;;;;;;;15.08;59.53;99940.34;116976;1189;22912;-76
2021/09/24 09:24:22;;;;;;;;;;;;;;;15.03;59.55;99937.58;117059;1189;21908;-75
2021/09/24 09:27:20;;;;;;;;;;;;;;;14.99;59.58;99934.34;117039;1188;23448;-75
2021/09/24 09:30:04;;;;;;;;;;;;;;;15.03;60.20;99920.73;117082;1188;21861;-76
2021/09/24 09:32:33;;;;;;;;;;;;;;;15.37;61.62;99923.08;117240;1188;22039;-76
2021/09/24 09:35:02;;;;;;;;;;;;;;;15.79;61.25;99926.39;117225;1188;22904;-76
2021/09/24 09:37:34;;;;;;;;;;;;;;;16.12;60.08;99928.31;117125;1188;21863;-76
2021/09/24 09:40:16;;;;;;;;;;;;;;;16.30;58.27;99929.02;117019;1189;24209;-75
2021/09/24 09:42:45;;;;;;;;;;;;;;;16.27;57.01;99934.63;117100;1189;21882;-75
2021/09/24 09:45:17;;;;;;;;;;;;;;;16.17;56.53;99932.80;117045;1188;22833;-75
2021/09/24 09:47:48;;;;;;;;;;;;;;;16.06;56.91;99935.56;117028;1189;21926;-75
2021/09/24 09:50:23;;;;;;;;;;;;;;;16.12;57.46;99936.23;117069;1188;22064;-75
2021/09/24 09:52:56;;;;;;;;;;;;;;;16.13;57.30;99938.67;117183;1188;21899;-75
2021/09/24 09:55:28;;;;;;;;;;;;;;;16.29;57.86;99938.59;117043;1189;21882;-75
2021/09/24 09:57:59;;;;;;;;;;;;;;;16.49;57.69;99940.25;116817;1192;23460;-75
2021/09/24 10:00:31;;;;;;;;;;;;;;;16.79;58.03;99948.23;116815;1183;22611;-76
2021/09/24 10:03:07;;;;;;;;;;;;;;;17.08;57.23;99945.77;116765;1192;21917;-75
2021/09/24 10:05:41;;;;;;;;;;;;;;;17.45;57.37;99946.98;116492;1193;23453;-75
2021/09/24 10:08:28;;;;;;;;;;;;;;;17.84;56.26;99956.16;116467;1193;21866;-76
2021/09/24 10:11:12;;;;;;;;;;;;;;;17.94;54.07;99959.42;116533;1193;21998;-76
2021/09/24 10:14:01;;;;;;;;;;;;;;;17.77;53.18;99958.02;116505;1194;24399;-76
2021/09/24 10:16:35;;;;;;;;;;;;;;;17.53;52.97;99961.16;116610;1192;24130;-76
2021/09/24 10:19:16;;;;;;;;;;;;;;;17.27;53.06;99967.59;116767;1191;22798;-76
2021/09/24 10:21:52;;;;;;;;;;;;;;;17.05;53.67;99970.39;116829;1190;22749;-75
2021/09/24 10:24:21;;;;;;;;;;;;;;;17.00;54.30;99978.40;117103;1187;22839;-75
2021/09/24 10:26:58;;;;;;;;;;;;;;;16.97;54.62;99971.48;117111;1188;21878;-75
2021/09/24 10:29:29;;;;;;;;;;;;;;;16.93;54.58;99966.89;117095;1189;23471;-75
2021/09/24 10:32:28;;;;;;;;;;;;;;;16.82;54.18;99968.73;117151;1184;21871;-75
2021/09/24 10:35:05;;;;;;;;;;;;;;;16.71;54.08;99967.23;116843;1191;22980;-75
2021/09/24 10:37:36;;;;;;;;;;;;;;;16.64;54.14;99961.18;116839;1191;21910;-75
2021/09/24 10:40:21;;;;;;;;;;;;;;;16.58;54.21;99967.59;116861;1189;22180;-75
2021/09/24 10:42:52;;;;;;;;;;;;;;;16.63;55.32;99962.54;116810;1191;21899;-76
2021/09/24 10:45:42;;;;;;;;;;;;;;;16.89;55.50;99964.25;116829;1191;21881;-78
2021/09/24 10:48:18;;;;;;;;;;;;;;;16.96;54.32;99965.46;116843;1191;22908;-75
2021/09/24 10:51:06;;;;;;;;;;;;;;;16.91;53.97;99968.10;116829;1191;22879;-77
2021/09/24 10:53:47;;;;;;;;;;;;;;;16.75;53.53;99970.88;116510;1193;21887;-76
2021/09/24 10:56:16;;;;;;;;;;;;;;;16.55;53.46;99972.94;116755;1193;24057;-76
2021/09/24 10:58:45;;;;;;;;;;;;;;;16.40;53.81;99967.27;116687;1193;22917;-76
2021/09/24 11:01:36;;;;;;;;;;;;;;;16.32;54.24;99958.29;116497;1193;22096;-76
2021/09/24 11:04:10;;;;;;;;;;;;;;;16.26;54.61;99957.05;116496;1193;21894;-76
2021/09/24 11:06:45;;;;;;;;;;;;;;;16.23;54.88;99963.06;116544;1190;22910;-75
2021/09/24 11:09:16;;;;;;;;;;;;;;;16.21;54.77;99956.34;116671;1193;21868;-75
2021/09/24 11:12:00;;;;;;;;;;;;;;;16.15;54.55;99955.11;116570;1192;21872;-75
2021/09/24 11:14:38;;;;;;;;;;;;;;;16.06;54.56;99959.26;116593;1193;23688;-75
2021/09/24 11:17:09;;;;;;;;;;;;;;;15.99;54.78;99959.95;116770;1192;22913;-76
2021/09/24 11:19:46;;;;;;;;;;;;;;;15.98;55.16;99957.16;116661;1192;21882;-75
2021/09/24 11:22:35;;;;;;;;;;;;;;;16.00;55.49;99960.76;116488;1193;21865;-75
2021/09/24 11:25:13;;;;;;;;;;;;;;;16.02;55.67;99963.30;116541;1193;22882;-75
2021/09/24 11:27:44;;;;;;;;;;;;;;;16.05;55.81;99964.55;116501;1193;21884;-75
2021/09/24 11:30:22;;;;;;;;;;;;;;;16.08;55.86;99963.96;116506;1190;22444;-76
2021/09/24 11:32:56;;;;;;;;;;;;;;;16.13;56.11;99965.00;116513;1193;22606;-73
2021/09/24 11:35:41;;;;;;;;;;;;;;;16.24;56.16;99969.33;116536;1193;21878;-76
2021/09/24 11:38:15;;;;;;;;;;;;;;;16.36;56.04;99969.58;116801;1190;22087;-75
2021/09/24 11:40:55;;;;;;;;;;;;;;;16.47;55.71;99971.59;116926;1187;21878;-75
2021/09/24 11:43:37;;;;;;;;;;;;;;;16.59;55.14;99969.91;117012;1189;21944;-75
2021/09/24 11:46:19;;;;;;;;;;;;;;;16.67;54.66;99975.27;116998;1189;22147;-76
2021/09/24 11:48:51;;;;;;;;;;;;;;;16.73;54.35;99972.94;117042;1187;24109;-77
2021/09/24 11:51:23;;;;;;;;;;;;;;;16.81;54.28;99969.17;117072;1189;21891;-76
2021/09/24 11:53:55;;;;;;;;;;;;;;;16.86;54.09;99972.16;117107;1189;23412;-76
2021/09/24 11:56:32;;;;;;;;;;;;;;;16.90;53.86;99970.15;117049;1189;21902;-75
2021/09/24 11:59:06;;;;;;;;;;;;;;;16.94;53.69;99972.05;117066;1189;23889;-76
2021/09/24 12:01:36;;;;;;;;;;;;;;;16.95;53.39;99966.58;117064;1189;23423;-76
2021/09/24 12:04:07;;;;;;;;;;;;;;;16.93;53.33;99969.88;117090;1189;21893;-75
2021/09/24 12:06:38;;;;;;;;;;;;;;;16.88;52.93;99969.30;117055;1189;23441;-76
2021/09/24 12:09:09;;;;;;;;;;;;;;;16.89;52.93;99971.56;117129;1189;21863;-76
2021/09/24 12:11:42;;;;;;;;;;;;;;;16.91;52.92;99978.88;117007;1187;21889;-76
2021/09/24 12:14:13;;;;;;;;;;;;;;;16.91;52.66;99980.23;117059;1189;21866;-76
2021/09/24 12:16:44;;;;;;;;;;;;;;;16.91;52.63;99987.21;117109;1187;23011;-76
2021/09/24 12:19:15;;;;;;;;;;;;;;;16.90;52.46;99985.15;117162;1184;21902;-77
2021/09/24 12:21:52;;;;;;;;;;;;;;;16.90;52.61;99984.19;117029;1189;21915;-77
2021/09/24 12:24:28;;;;;;;;;;;;;;;16.90;52.52;99975.29;117034;1189;21908;-77
2021/09/24 12:27:10;;;;;;;;;;;;;;;16.92;52.47;99976.45;117174;1187;22361;-75
2021/09/24 12:29:42;;;;;;;;;;;;;;;16.93;52.39;99974.64;117223;1185;21876;-75
2021/09/24 12:32:17;;;;;;;;;;;;;;;16.93;52.05;99977.02;117076;1189;21905;-76
2021/09/24 12:34:49;;;;;;;;;;;;;;;16.92;51.91;99979.08;117020;1189;21891;-75
2021/09/24 12:37:31;;;;;;;;;;;;;;;16.93;51.77;99979.11;117019;1185;22635;-76
2021/09/24 12:40:03;;;;;;;;;;;;;;;16.92;51.59;99983.71;117024;1189;22808;-75
2021/09/24 12:42:35;;;;;;;;;;;;;;;16.93;51.47;99986.95;117012;1189;22914;-74
2021/09/24 12:45:09;;;;;;;;;;;;;;;16.96;51.48;99990.14;117014;1189;23523;-77
2021/09/24 12:47:39;;;;;;;;;;;;;;;17.00;51.27;99992.60;117074;1189;21931;-76
2021/09/24 12:50:09;;;;;;;;;;;;;;;17.01;50.91;99995.56;117090;1187;21865;-76
2021/09/24 12:52:39;;;;;;;;;;;;;;;17.00;51.14;99997.08;117229;1187;21872;-75
2021/09/24 12:55:10;;;;;;;;;;;;;;;17.02;51.39;99993.25;117277;1184;21889;-76
2021/09/24 12:57:40;;;;;;;;;;;;;;;17.03;51.08;99993.66;117096;1184;23459;-74